Blue Image — 3EXO5 — position and weather

sailwx.info

Track history (hours):
 
Tides and Currents Weather Stations Pressure Air Temp Water Temp Dewpoint Dewpoint Depression Visibility Wind Speed Wind Dir Waves Ship Positions

Blue Image

Last reported at 2014-Nov-03 14:33 UTC. Time now 2014-Nov-28 09:43 UTC.
Position N 35°59' W 005°31'.
Warning: this ship's position is 24 days out of date.

Length 160 m; draft 5.8 m.

Type: Cargo ship. MMSI: 351960000.

Date/timePositionNaut miles runAvg speedWind from/ knotsBaromVisibWave heightAir tempDewpointWater temp
2014-Nov-03 14:33N 35°59' W 005°31'9 8.9
2014-Nov-03 13:33N 36°05' W 005°22'3 2.5
2014-Nov-03 12:33N 36°07' W 005°23'1 1.3
2014-Nov-03 11:28N 36°08' W 005°22'0 0.1
2014-Nov-03 10:31N 36°08' W 005°22'0 0.1
2014-Nov-03 09:31N 36°08' W 005°22'0 0.1
2014-Nov-03 08:28N 36°08' W 005°22'0 0.0
2014-Nov-03 06:28N 36°08' W 005°22'0 0.1
2014-Nov-03 05:32N 36°08' W 005°22'0 0.0
2014-Nov-03 04:28N 36°08' W 005°22'0 0.0
2014-Nov-03 03:31N 36°08' W 005°22'0 0.0
2014-Nov-03 02:31N 36°08' W 005°22'0 0.0
2014-Nov-03 01:28N 36°08' W 005°22'0 0.0
2014-Nov-03 00:28N 36°08' W 005°22'0 0.0
2014-Nov-02 23:29N 36°08' W 005°22'0 0.0
2014-Nov-02 22:28N 36°08' W 005°22'0 0.0
2014-Nov-02 21:22N 36°08' W 005°22'0 0.0
2014-Nov-02 20:22N 36°08' W 005°22'1 0.8
2014-Nov-02 19:33N 36°07' W 005°22'4 2.8
2014-Nov-02 18:18N 36°09' W 005°18'0 0.1
2014-Nov-02 17:30N 36°09' W 005°18'0 0.1
2014-Nov-02 16:18N 36°09' W 005°18'0 0.0
2014-Nov-02 15:30N 36°09' W 005°18'0 0.0
2014-Nov-02 14:24N 36°09' W 005°18'0 0.0
2014-Nov-02 13:30N 36°09' W 005°18'0 0.1
2014-Nov-02 12:24N 36°09' W 005°18'0 0.0
2014-Nov-02 08:30N 36°09' W 005°18'0 0.0
2014-Nov-02 07:33N 36°09' W 005°18'0 0.0
2014-Nov-02 06:30N 36°09' W 005°18'0 0.0
2014-Nov-02 02:12N 36°09' W 005°18'0 0.0
2014-Nov-02 01:18N 36°09' W 005°18'0 0.1
2014-Nov-02 00:30N 36°09' W 005°18'0 0.0
2014-Nov-01 22:06N 36°09' W 005°18'0 0.0
2014-Nov-01 21:09N 36°09' W 005°18'0 0.0
2014-Nov-01 17:06N 36°09' W 005°18'0 0.0
2014-Nov-01 16:24N 36°09' W 005°18'0 0.0
2014-Nov-01 15:30N 36°09' W 005°18'0 0.0
2014-Nov-01 14:30N 36°09' W 005°18'0 0.0
2014-Nov-01 13:30N 36°09' W 005°18'0 0.0
2014-Nov-01 12:18N 36°09' W 005°18'0 0.0
2014-Nov-01 11:33N 36°09' W 005°18'0 0.0
2014-Nov-01 10:24N 36°09' W 005°18'0 0.0
2014-Nov-01 09:30N 36°09' W 005°18'0 0.0
2014-Nov-01 08:18N 36°09' W 005°18'0 0.0
2014-Nov-01 07:30N 36°09' W 005°18'0 0.0
2014-Nov-01 06:30N 36°09' W 005°18'0 0.0
2014-Nov-01 05:27N 36°09' W 005°18'0 0.0
2014-Nov-01 04:30N 36°09' W 005°18'0 0.0
2014-Nov-01 03:12N 36°09' W 005°18'0 0.0
2014-Nov-01 02:30N 36°09' W 005°18'0 0.0
2014-Nov-01 01:18N 36°09' W 005°18'0 0.0
2014-Nov-01 00:30N 36°09' W 005°18'0 0.0
2014-Oct-31 23:30N 36°09' W 005°18'0 0.0
2014-Oct-31 22:30N 36°09' W 005°18'0 0.0
2014-Oct-31 21:30N 36°09' W 005°18'0 0.0
2014-Oct-31 20:30N 36°09' W 005°18'0 0.0
2014-Oct-31 19:12N 36°09' W 005°18'0 0.0
2014-Oct-31 17:24N 36°09' W 005°18'0 0.0
2014-Oct-31 15:30N 36°09' W 005°18'0 0.0
2014-Oct-31 14:24N 36°09' W 005°18'0 0.0
2014-Oct-31 13:12N 36°09' W 005°18'0 0.0
2014-Oct-31 12:30N 36°09' W 005°18'0 0.0
2014-Oct-31 11:12N 36°09' W 005°18'0 0.0
2014-Oct-31 10:24N 36°09' W 005°18'0 0.1
2014-Oct-31 09:31N 36°09' W 005°18'4 4.4
2014-Oct-31 08:34N 36°08' W 005°13'20012.9
2014-Oct-30 17:05N 37°05' W 001°15'1214.0
2014-Oct-30 16:13N 37°13' W 001°03'1014.2
2014-Oct-30 15:30N 37°20' W 000°54'1414.3
2014-Oct-30 14:33N 37°29' W 000°41'1414.1
2014-Oct-30 13:33N 37°39' W 000°29'14013.9
2014-Oct-30 03:29N 39°40' E 001°01'1313.7
2014-Oct-30 02:33N 39°51' E 001°09'1413.5
2014-Oct-30 01:33N 40°03' E 001°17'1313.4
2014-Oct-30 00:33N 40°15' E 001°25'1413.5
2014-Oct-29 23:33N 40°27' E 001°33'1413.7
2014-Oct-29 22:33N 40°39' E 001°41'1110.4
2014-Oct-29 21:31N 40°49' E 001°48'1 0.5
2014-Oct-29 20:28N 40°49' E 001°49'1 0.5
2014-Oct-29 19:28N 40°49' E 001°49'1 0.5
2014-Oct-29 18:31N 40°49' E 001°50'1 0.5
2014-Oct-29 17:31N 40°50' E 001°50'1 0.6
2014-Oct-29 16:25N 40°50' E 001°51'8 8.7
2014-Oct-29 15:30N 40°53' E 001°41'24 1.0
2014-Oct-28 14:32N 41°06' E 001°14'0 0.0
2014-Oct-28 13:14N 41°06' E 001°14'0 0.0
2014-Oct-28 12:32N 41°06' E 001°14'0 0.0
2014-Oct-28 11:32N 41°06' E 001°14'0 0.0
2014-Oct-28 09:26N 41°06' E 001°14'0 0.0
2014-Oct-28 06:32N 41°06' E 001°14'0 0.0
2014-Oct-28 04:20N 41°06' E 001°14'0 0.0
2014-Oct-28 02:14N 41°06' E 001°14'0 0.0
2014-Oct-28 00:08N 41°06' E 001°14'0 0.0
2014-Oct-27 18:14N 41°06' E 001°14'0 0.0
2014-Oct-27 16:20N 41°06' E 001°14'0 0.0
2014-Oct-27 15:26N 41°06' E 001°14'0 0.0
2014-Oct-27 09:08N 41°06' E 001°14'0 0.0
2014-Oct-27 08:32N 41°06' E 001°14'3 0.3
2014-Oct-26 23:21N 41°04' E 001°14'2 0.1
2014-Oct-26 08:04N 41°04' E 001°16'0 0.0
2014-Oct-26 07:16N 41°04' E 001°16'0 0.0
2014-Oct-25 20:28N 41°04' E 001°16'7 0.3
2014-Oct-24 18:09N 40°57' E 001°12'912.8
2014-Oct-24 17:27N 40°48' E 001°09'1112.4
2014-Oct-24 16:32N 40°37' E 001°07'1312.9
2014-Oct-24 15:30N 40°24' E 001°05'  
Track history (hours):
 
Tides and Currents Weather Stations Pressure Air Temp Water Temp Dewpoint Dewpoint Depression Visibility Wind Speed Wind Dir Waves Ship Positions

Blue Image

Last reported at 2014-Nov-03 14:33 UTC. Time now 2014-Nov-28 09:43 UTC.
Position N 35°59' W 005°31'.
Warning: this ship's position is 24 days out of date.

Length 160 m; draft 5.8 m.

Type: Cargo ship. MMSI: 351960000.

Date/timePositionNaut miles runAvg speedWind from/ knotsBaromVisibWave heightAir tempDewpointWater temp
2014-Nov-03 14:33N 35°59' W 005°31'9 8.9
2014-Nov-03 13:33N 36°05' W 005°22'3 2.5
2014-Nov-03 12:33N 36°07' W 005°23'1 1.3
2014-Nov-03 11:28N 36°08' W 005°22'0 0.1
2014-Nov-03 10:31N 36°08' W 005°22'0 0.1
2014-Nov-03 09:31N 36°08' W 005°22'0 0.1
2014-Nov-03 08:28N 36°08' W 005°22'0 0.0
2014-Nov-03 06:28N 36°08' W 005°22'0 0.1
2014-Nov-03 05:32N 36°08' W 005°22'0 0.0
2014-Nov-03 04:28N 36°08' W 005°22'0 0.0
2014-Nov-03 03:31N 36°08' W 005°22'0 0.0
2014-Nov-03 02:31N 36°08' W 005°22'0 0.0
2014-Nov-03 01:28N 36°08' W 005°22'0 0.0
2014-Nov-03 00:28N 36°08' W 005°22'0 0.0
2014-Nov-02 23:29N 36°08' W 005°22'0 0.0
2014-Nov-02 22:28N 36°08' W 005°22'0 0.0
2014-Nov-02 21:22N 36°08' W 005°22'0 0.0
2014-Nov-02 20:22N 36°08' W 005°22'1 0.8
2014-Nov-02 19:33N 36°07' W 005°22'4 2.8
2014-Nov-02 18:18N 36°09' W 005°18'0 0.1
2014-Nov-02 17:30N 36°09' W 005°18'0 0.1
2014-Nov-02 16:18N 36°09' W 005°18'0 0.0
2014-Nov-02 15:30N 36°09' W 005°18'0 0.0
2014-Nov-02 14:24N 36°09' W 005°18'0 0.0
2014-Nov-02 13:30N 36°09' W 005°18'0 0.1
2014-Nov-02 12:24N 36°09' W 005°18'0 0.0
2014-Nov-02 08:30N 36°09' W 005°18'0 0.0
2014-Nov-02 07:33N 36°09' W 005°18'0 0.0
2014-Nov-02 06:30N 36°09' W 005°18'0 0.0
2014-Nov-02 02:12N 36°09' W 005°18'0 0.0
2014-Nov-02 01:18N 36°09' W 005°18'0 0.1
2014-Nov-02 00:30N 36°09' W 005°18'0 0.0
2014-Nov-01 22:06N 36°09' W 005°18'0 0.0
2014-Nov-01 21:09N 36°09' W 005°18'0 0.0
2014-Nov-01 17:06N 36°09' W 005°18'0 0.0
2014-Nov-01 16:24N 36°09' W 005°18'0 0.0
2014-Nov-01 15:30N 36°09' W 005°18'0 0.0
2014-Nov-01 14:30N 36°09' W 005°18'0 0.0
2014-Nov-01 13:30N 36°09' W 005°18'0 0.0
2014-Nov-01 12:18N 36°09' W 005°18'0 0.0
2014-Nov-01 11:33N 36°09' W 005°18'0 0.0
2014-Nov-01 10:24N 36°09' W 005°18'0 0.0
2014-Nov-01 09:30N 36°09' W 005°18'0 0.0
2014-Nov-01 08:18N 36°09' W 005°18'0 0.0
2014-Nov-01 07:30N 36°09' W 005°18'0 0.0
2014-Nov-01 06:30N 36°09' W 005°18'0 0.0
2014-Nov-01 05:27N 36°09' W 005°18'0 0.0
2014-Nov-01 04:30N 36°09' W 005°18'0 0.0
2014-Nov-01 03:12N 36°09' W 005°18'0 0.0
2014-Nov-01 02:30N 36°09' W 005°18'0 0.0
2014-Nov-01 01:18N 36°09' W 005°18'0 0.0
2014-Nov-01 00:30N 36°09' W 005°18'0 0.0
2014-Oct-31 23:30N 36°09' W 005°18'0 0.0
2014-Oct-31 22:30N 36°09' W 005°18'0 0.0
2014-Oct-31 21:30N 36°09' W 005°18'0 0.0
2014-Oct-31 20:30N 36°09' W 005°18'0 0.0
2014-Oct-31 19:12N 36°09' W 005°18'0 0.0
2014-Oct-31 17:24N 36°09' W 005°18'0 0.0
2014-Oct-31 15:30N 36°09' W 005°18'0 0.0
2014-Oct-31 14:24N 36°09' W 005°18'0 0.0
2014-Oct-31 13:12N 36°09' W 005°18'0 0.0
2014-Oct-31 12:30N 36°09' W 005°18'0 0.0
2014-Oct-31 11:12N 36°09' W 005°18'0 0.0
2014-Oct-31 10:24N 36°09' W 005°18'0 0.1
2014-Oct-31 09:31N 36°09' W 005°18'4 4.4
2014-Oct-31 08:34N 36°08' W 005°13'20012.9
2014-Oct-30 17:05N 37°05' W 001°15'1214.0
2014-Oct-30 16:13N 37°13' W 001°03'1014.2
2014-Oct-30 15:30N 37°20' W 000°54'1414.3
2014-Oct-30 14:33N 37°29' W 000°41'1414.1
2014-Oct-30 13:33N 37°39' W 000°29'14013.9
2014-Oct-30 03:29N 39°40' E 001°01'1313.7
2014-Oct-30 02:33N 39°51' E 001°09'1413.5
2014-Oct-30 01:33N 40°03' E 001°17'1313.4
2014-Oct-30 00:33N 40°15' E 001°25'1413.5
2014-Oct-29 23:33N 40°27' E 001°33'1413.7
2014-Oct-29 22:33N 40°39' E 001°41'1110.4
2014-Oct-29 21:31N 40°49' E 001°48'1 0.5
2014-Oct-29 20:28N 40°49' E 001°49'1 0.5
2014-Oct-29 19:28N 40°49' E 001°49'1 0.5
2014-Oct-29 18:31N 40°49' E 001°50'1 0.5
2014-Oct-29 17:31N 40°50' E 001°50'1 0.6
2014-Oct-29 16:25N 40°50' E 001°51'8 8.7
2014-Oct-29 15:30N 40°53' E 001°41'24 1.0
2014-Oct-28 14:32N 41°06' E 001°14'0 0.0
2014-Oct-28 13:14N 41°06' E 001°14'0 0.0
2014-Oct-28 12:32N 41°06' E 001°14'0 0.0
2014-Oct-28 11:32N 41°06' E 001°14'0 0.0
2014-Oct-28 09:26N 41°06' E 001°14'0 0.0
2014-Oct-28 06:32N 41°06' E 001°14'0 0.0
2014-Oct-28 04:20N 41°06' E 001°14'0 0.0
2014-Oct-28 02:14N 41°06' E 001°14'0 0.0
2014-Oct-28 00:08N 41°06' E 001°14'0 0.0
2014-Oct-27 18:14N 41°06' E 001°14'0 0.0
2014-Oct-27 16:20N 41°06' E 001°14'0 0.0
2014-Oct-27 15:26N 41°06' E 001°14'0 0.0
2014-Oct-27 09:08N 41°06' E 001°14'0 0.0
2014-Oct-27 08:32N 41°06' E 001°14'3 0.3
2014-Oct-26 23:21N 41°04' E 001°14'2 0.1
2014-Oct-26 08:04N 41°04' E 001°16'0 0.0
2014-Oct-26 07:16N 41°04' E 001°16'0 0.0
2014-Oct-25 20:28N 41°04' E 001°16'7 0.3
2014-Oct-24 18:09N 40°57' E 001°12'912.8
2014-Oct-24 17:27N 40°48' E 001°09'1112.4
2014-Oct-24 16:32N 40°37' E 001°07'1312.9
2014-Oct-24 15:30N 40°24' E 001°05'  

Dump ship's entire track history